sensor_id;sensor_type;location;lat;lon;timestamp;P1;durP1;ratioP1;P2;durP2;ratioP2
64799;SDS011;51233;51.982;4.594;2023-03-01T00:01:02;4.37;;;3.97;;
64799;SDS011;51233;51.982;4.594;2023-03-01T00:04:02;3.80;;;2.92;;
64799;SDS011;51233;51.982;4.594;2023-03-01T00:07:02;3.63;;;3.30;;
64799;SDS011;51233;51.982;4.594;2023-03-01T00:10:03;7.15;;;5.38;;
64799;SDS011;51233;51.982;4.594;2023-03-01T00:13:03;7.30;;;5.75;;
64799;SDS011;51233;51.982;4.594;2023-03-01T00:16:06;4.63;;;4.00;;
64799;SDS011;51233;51.982;4.594;2023-03-01T00:19:07;6.40;;;5.43;;
64799;SDS011;51233;51.982;4.594;2023-03-01T00:22:09;6.20;;;5.60;;
64799;SDS011;51233;51.982;4.594;2023-03-01T00:25:09;7.37;;;6.00;;
64799;SDS011;51233;51.982;4.594;2023-03-01T00:28:09;7.00;;;6.30;;
64799;SDS011;51233;51.982;4.594;2023-03-01T00:31:13;6.73;;;5.83;;
64799;SDS011;51233;51.982;4.594;2023-03-01T00:34:16;6.47;;;5.88;;
64799;SDS011;51233;51.982;4.594;2023-03-01T00:37:16;6.72;;;6.13;;
64799;SDS011;51233;51.982;4.594;2023-03-01T00:40:16;6.20;;;5.57;;
64799;SDS011;51233;51.982;4.594;2023-03-01T00:43:17;6.90;;;6.15;;
64799;SDS011;51233;51.982;4.594;2023-03-01T00:46:18;4.35;;;4.03;;
64799;SDS011;51233;51.982;4.594;2023-03-01T00:49:18;7.95;;;6.40;;
64799;SDS011;51233;51.982;4.594;2023-03-01T00:52:18;6.28;;;5.66;;
64799;SDS011;51233;51.982;4.594;2023-03-01T00:55:19;6.70;;;6.10;;
64799;SDS011;51233;51.982;4.594;2023-03-01T00:58:19;6.50;;;5.90;;
64799;SDS011;51233;51.982;4.594;2023-03-01T01:01:20;6.00;;;5.40;;
64799;SDS011;51233;51.982;4.594;2023-03-01T01:04:23;7.35;;;6.40;;
64799;SDS011;51233;51.982;4.594;2023-03-01T01:07:24;6.70;;;6.10;;
64799;SDS011;51233;51.982;4.594;2023-03-01T01:10:24;6.32;;;5.72;;
64799;SDS011;51233;51.982;4.594;2023-03-01T01:13:24;7.63;;;6.95;;
64799;SDS011;51233;51.982;4.594;2023-03-01T01:16:25;7.28;;;6.60;;
64799;SDS011;51233;51.982;4.594;2023-03-01T01:19:25;6.87;;;6.27;;
64799;SDS011;51233;51.982;4.594;2023-03-01T01:22:26;6.43;;;5.82;;
64799;SDS011;51233;51.982;4.594;2023-03-01T01:25:26;7.15;;;6.45;;
64799;SDS011;51233;51.982;4.594;2023-03-01T01:28:26;7.15;;;6.55;;
64799;SDS011;51233;51.982;4.594;2023-03-01T01:31:27;8.20;;;6.60;;
64799;SDS011;51233;51.982;4.594;2023-03-01T01:34:27;7.60;;;6.90;;
64799;SDS011;51233;51.982;4.594;2023-03-01T01:37:29;6.50;;;5.95;;
64799;SDS011;51233;51.982;4.594;2023-03-01T01:40:33;9.07;;;6.80;;
64799;SDS011;51233;51.982;4.594;2023-03-01T01:43:49;8.93;;;6.60;;
64799;SDS011;51233;51.982;4.594;2023-03-01T01:47:12;6.82;;;6.28;;
64799;SDS011;51233;51.982;4.594;2023-03-01T01:50:14;8.23;;;6.72;;
64799;SDS011;51233;51.982;4.594;2023-03-01T01:53:18;6.97;;;6.18;;
64799;SDS011;51233;51.982;4.594;2023-03-01T01:56:18;9.33;;;6.83;;
64799;SDS011;51233;51.982;4.594;2023-03-01T01:59:32;8.20;;;6.97;;
64799;SDS011;51233;51.982;4.594;2023-03-01T02:02:33;7.47;;;6.78;;
64799;SDS011;51233;51.982;4.594;2023-03-01T02:09:05;6.15;;;5.50;;
64799;SDS011;51233;51.982;4.594;2023-03-01T02:12:09;6.70;;;6.10;;
64799;SDS011;51233;51.982;4.594;2023-03-01T02:15:10;6.25;;;5.65;;
64799;SDS011;51233;51.982;4.594;2023-03-01T02:18:10;6.38;;;5.78;;
64799;SDS011;51233;51.982;4.594;2023-03-01T02:24:19;8.35;;;7.03;;
64799;SDS011;51233;51.982;4.594;2023-03-01T02:27:21;8.20;;;7.30;;
64799;SDS011;51233;51.982;4.594;2023-03-01T02:30:25;8.10;;;7.40;;
64799;SDS011;51233;51.982;4.594;2023-03-01T02:33:26;8.13;;;7.40;;
64799;SDS011;51233;51.982;4.594;2023-03-01T02:36:28;8.43;;;7.53;;
64799;SDS011;51233;51.982;4.594;2023-03-01T02:39:34;8.45;;;7.43;;
64799;SDS011;51233;51.982;4.594;2023-03-01T02:42:40;7.70;;;6.93;;
64799;SDS011;51233;51.982;4.594;2023-03-01T02:45:50;6.88;;;6.18;;
64799;SDS011;51233;51.982;4.594;2023-03-01T02:48:55;8.20;;;7.40;;
64799;SDS011;51233;51.982;4.594;2023-03-01T02:52:01;8.32;;;7.35;;
64799;SDS011;51233;51.982;4.594;2023-03-01T02:55:11;7.75;;;6.97;;
64799;SDS011;51233;51.982;4.594;2023-03-01T02:58:12;7.78;;;7.03;;
64799;SDS011;51233;51.982;4.594;2023-03-01T03:01:13;8.20;;;7.43;;
64799;SDS011;51233;51.982;4.594;2023-03-01T03:04:15;8.48;;;7.68;;
64799;SDS011;51233;51.982;4.594;2023-03-01T03:10:23;8.20;;;7.40;;
64799;SDS011;51233;51.982;4.594;2023-03-01T03:13:26;8.00;;;7.20;;
64799;SDS011;51233;51.982;4.594;2023-03-01T03:16:28;7.80;;;7.13;;
64799;SDS011;51233;51.982;4.594;2023-03-01T03:19:29;8.98;;;8.07;;
64799;SDS011;51233;51.982;4.594;2023-03-01T03:22:30;9.05;;;8.15;;
64799;SDS011;51233;51.982;4.594;2023-03-01T03:25:30;8.80;;;8.00;;
64799;SDS011;51233;51.982;4.594;2023-03-01T03:28:30;8.52;;;7.72;;
64799;SDS011;51233;51.982;4.594;2023-03-01T03:31:34;8.68;;;7.88;;
64799;SDS011;51233;51.982;4.594;2023-03-01T03:34:34;9.27;;;8.13;;
64799;SDS011;51233;51.982;4.594;2023-03-01T03:37:40;9.25;;;8.38;;
64799;SDS011;51233;51.982;4.594;2023-03-01T03:41:06;9.15;;;8.23;;
64799;SDS011;51233;51.982;4.594;2023-03-01T03:44:07;9.80;;;8.30;;
64799;SDS011;51233;51.982;4.594;2023-03-01T03:47:07;9.02;;;8.02;;
64799;SDS011;51233;51.982;4.594;2023-03-01T03:50:08;9.82;;;8.90;;
64799;SDS011;51233;51.982;4.594;2023-03-01T03:53:10;9.67;;;8.40;;
64799;SDS011;51233;51.982;4.594;2023-03-01T03:56:10;9.63;;;8.75;;
64799;SDS011;51233;51.982;4.594;2023-03-01T03:59:10;9.50;;;8.60;;
64799;SDS011;51233;51.982;4.594;2023-03-01T04:02:11;9.02;;;8.18;;
64799;SDS011;51233;51.982;4.594;2023-03-01T04:05:11;10.18;;;8.55;;
64799;SDS011;51233;51.982;4.594;2023-03-01T04:08:12;11.20;;;9.32;;
64799;SDS011;51233;51.982;4.594;2023-03-01T04:11:16;9.15;;;8.25;;
64799;SDS011;51233;51.982;4.594;2023-03-01T04:14:28;9.20;;;8.32;;
64799;SDS011;51233;51.982;4.594;2023-03-01T04:17:28;10.98;;;9.05;;
64799;SDS011;51233;51.982;4.594;2023-03-01T04:20:30;9.48;;;8.25;;
64799;SDS011;51233;51.982;4.594;2023-03-01T04:23:30;9.15;;;8.25;;
64799;SDS011;51233;51.982;4.594;2023-03-01T04:26:30;9.80;;;8.85;;
64799;SDS011;51233;51.982;4.594;2023-03-01T04:29:30;9.43;;;8.52;;
64799;SDS011;51233;51.982;4.594;2023-03-01T04:32:31;9.48;;;8.55;;
64799;SDS011;51233;51.982;4.594;2023-03-01T04:35:31;8.98;;;8.18;;
64799;SDS011;51233;51.982;4.594;2023-03-01T04:38:32;10.02;;;9.05;;
64799;SDS011;51233;51.982;4.594;2023-03-01T04:41:32;9.10;;;8.23;;
64799;SDS011;51233;51.982;4.594;2023-03-01T04:44:32;10.82;;;9.32;;
64799;SDS011;51233;51.982;4.594;2023-03-01T04:47:32;10.18;;;9.18;;
64799;SDS011;51233;51.982;4.594;2023-03-01T04:50:33;11.60;;;10.40;;
64799;SDS011;51233;51.982;4.594;2023-03-01T04:53:33;9.77;;;8.88;;
64799;SDS011;51233;51.982;4.594;2023-03-01T04:56:33;9.43;;;8.52;;
64799;SDS011;51233;51.982;4.594;2023-03-01T04:59:33;10.57;;;8.77;;
64799;SDS011;51233;51.982;4.594;2023-03-01T05:02:36;9.65;;;8.85;;
64799;SDS011;51233;51.982;4.594;2023-03-01T05:05:37;8.85;;;8.10;;
64799;SDS011;51233;51.982;4.594;2023-03-01T05:08:38;9.63;;;8.43;;
64799;SDS011;51233;51.982;4.594;2023-03-01T05:11:41;9.55;;;8.75;;
64799;SDS011;51233;51.982;4.594;2023-03-01T05:14:41;8.55;;;7.85;;
64799;SDS011;51233;51.982;4.594;2023-03-01T05:17:41;9.10;;;8.20;;
64799;SDS011;51233;51.982;4.594;2023-03-01T05:20:42;8.10;;;7.30;;
64799;SDS011;51233;51.982;4.594;2023-03-01T05:23:42;7.43;;;6.82;;
64799;SDS011;51233;51.982;4.594;2023-03-01T05:26:42;7.68;;;7.07;;
64799;SDS011;51233;51.982;4.594;2023-03-01T05:29:42;7.30;;;6.70;;
64799;SDS011;51233;51.982;4.594;2023-03-01T05:32:47;6.18;;;5.75;;
64799;SDS011;51233;51.982;4.594;2023-03-01T05:35:47;6.82;;;6.32;;
64799;SDS011;51233;51.982;4.594;2023-03-01T05:38:48;6.60;;;6.13;;
64799;SDS011;51233;51.982;4.594;2023-03-01T05:41:51;6.30;;;5.80;;
64799;SDS011;51233;51.982;4.594;2023-03-01T05:44:55;6.78;;;6.18;;
64799;SDS011;51233;51.982;4.594;2023-03-01T05:47:55;6.85;;;6.35;;
64799;SDS011;51233;51.982;4.594;2023-03-01T05:50:58;6.70;;;6.10;;
64799;SDS011;51233;51.982;4.594;2023-03-01T05:54:00;6.25;;;5.75;;
64799;SDS011;51233;51.982;4.594;2023-03-01T05:57:00;5.47;;;5.07;;
64799;SDS011;51233;51.982;4.594;2023-03-01T06:00:00;6.85;;;6.35;;
64799;SDS011;51233;51.982;4.594;2023-03-01T06:03:03;6.50;;;6.05;;
64799;SDS011;51233;51.982;4.594;2023-03-01T06:06:03;7.15;;;6.63;;
64799;SDS011;51233;51.982;4.594;2023-03-01T06:09:04;7.25;;;6.65;;
64799;SDS011;51233;51.982;4.594;2023-03-01T06:12:04;6.80;;;6.30;;
64799;SDS011;51233;51.982;4.594;2023-03-01T06:15:05;7.47;;;6.93;;
64799;SDS011;51233;51.982;4.594;2023-03-01T06:18:06;6.85;;;6.30;;
64799;SDS011;51233;51.982;4.594;2023-03-01T06:21:06;7.68;;;6.97;;
64799;SDS011;51233;51.982;4.594;2023-03-01T06:24:07;7.78;;;7.18;;
64799;SDS011;51233;51.982;4.594;2023-03-01T06:27:08;7.90;;;7.10;;
64799;SDS011;51233;51.982;4.594;2023-03-01T06:30:09;6.50;;;6.00;;
64799;SDS011;51233;51.982;4.594;2023-03-01T06:36:10;6.85;;;6.25;;
64799;SDS011;51233;51.982;4.594;2023-03-01T06:39:10;6.70;;;6.15;;
64799;SDS011;51233;51.982;4.594;2023-03-01T06:42:11;7.00;;;6.35;;
64799;SDS011;51233;51.982;4.594;2023-03-01T06:45:11;6.57;;;6.07;;
64799;SDS011;51233;51.982;4.594;2023-03-01T06:48:11;6.10;;;5.60;;
64799;SDS011;51233;51.982;4.594;2023-03-01T06:51:11;6.50;;;6.00;;
64799;SDS011;51233;51.982;4.594;2023-03-01T06:54:12;6.38;;;5.97;;
64799;SDS011;51233;51.982;4.594;2023-03-01T06:57:12;6.78;;;6.28;;
64799;SDS011;51233;51.982;4.594;2023-03-01T07:00:13;7.57;;;6.87;;
64799;SDS011;51233;51.982;4.594;2023-03-01T07:03:16;8.93;;;6.88;;
64799;SDS011;51233;51.982;4.594;2023-03-01T07:06:17;7.55;;;6.85;;
64799;SDS011;51233;51.982;4.594;2023-03-01T07:09:18;7.53;;;6.90;;
64799;SDS011;51233;51.982;4.594;2023-03-01T07:12:21;6.97;;;6.38;;
64799;SDS011;51233;51.982;4.594;2023-03-01T07:15:22;7.40;;;6.70;;
64799;SDS011;51233;51.982;4.594;2023-03-01T07:18:22;5.97;;;5.40;;
64799;SDS011;51233;51.982;4.594;2023-03-01T07:21:22;7.18;;;6.57;;
64799;SDS011;51233;51.982;4.594;2023-03-01T07:24:25;6.55;;;5.97;;
64799;SDS011;51233;51.982;4.594;2023-03-01T07:27:26;6.78;;;6.28;;
64799;SDS011;51233;51.982;4.594;2023-03-01T07:30:26;7.15;;;6.55;;
64799;SDS011;51233;51.982;4.594;2023-03-01T07:36:28;7.97;;;6.90;;
64799;SDS011;51233;51.982;4.594;2023-03-01T07:39:28;7.75;;;6.97;;
64799;SDS011;51233;51.982;4.594;2023-03-01T07:42:28;9.33;;;7.60;;
64799;SDS011;51233;51.982;4.594;2023-03-01T07:45:29;8.32;;;7.53;;
64799;SDS011;51233;51.982;4.594;2023-03-01T07:48:29;9.85;;;7.47;;
64799;SDS011;51233;51.982;4.594;2023-03-01T07:51:30;9.45;;;8.30;;
64799;SDS011;51233;51.982;4.594;2023-03-01T07:54:30;9.83;;;8.27;;
64799;SDS011;51233;51.982;4.594;2023-03-01T07:57:30;9.48;;;7.82;;
64799;SDS011;51233;51.982;4.594;2023-03-01T08:00:34;9.17;;;8.27;;
64799;SDS011;51233;51.982;4.594;2023-03-01T08:03:35;9.05;;;8.23;;
64799;SDS011;51233;51.982;4.594;2023-03-01T08:06:35;9.15;;;8.18;;
64799;SDS011;51233;51.982;4.594;2023-03-01T08:09:35;12.13;;;9.90;;
64799;SDS011;51233;51.982;4.594;2023-03-01T08:12:37;11.25;;;8.77;;
64799;SDS011;51233;51.982;4.594;2023-03-01T08:15:37;9.57;;;8.57;;
64799;SDS011;51233;51.982;4.594;2023-03-01T08:18:37;11.37;;;9.23;;
64799;SDS011;51233;51.982;4.594;2023-03-01T08:21:38;12.43;;;9.43;;
64799;SDS011;51233;51.982;4.594;2023-03-01T08:24:38;10.15;;;9.10;;
64799;SDS011;51233;51.982;4.594;2023-03-01T08:27:38;8.23;;;7.43;;
64799;SDS011;51233;51.982;4.594;2023-03-01T08:30:38;8.13;;;7.43;;
64799;SDS011;51233;51.982;4.594;2023-03-01T08:33:39;8.50;;;7.70;;
64799;SDS011;51233;51.982;4.594;2023-03-01T08:36:40;7.87;;;7.07;;
64799;SDS011;51233;51.982;4.594;2023-03-01T08:39:40;8.82;;;7.95;;
64799;SDS011;51233;51.982;4.594;2023-03-01T08:42:41;8.75;;;7.95;;
64799;SDS011;51233;51.982;4.594;2023-03-01T08:45:42;9.23;;;8.40;;
64799;SDS011;51233;51.982;4.594;2023-03-01T08:48:42;8.85;;;8.05;;
64799;SDS011;51233;51.982;4.594;2023-03-01T08:51:43;8.50;;;7.67;;
64799;SDS011;51233;51.982;4.594;2023-03-01T08:54:43;7.13;;;6.18;;
64799;SDS011;51233;51.982;4.594;2023-03-01T08:57:44;7.72;;;6.55;;
64799;SDS011;51233;51.982;4.594;2023-03-01T09:00:44;8.00;;;7.22;;
64799;SDS011;51233;51.982;4.594;2023-03-01T09:03:44;7.10;;;6.43;;
64799;SDS011;51233;51.982;4.594;2023-03-01T09:06:47;6.72;;;5.50;;
64799;SDS011;51233;51.982;4.594;2023-03-01T09:09:48;6.40;;;5.80;;
64799;SDS011;51233;51.982;4.594;2023-03-01T09:12:48;5.20;;;4.80;;
64799;SDS011;51233;51.982;4.594;2023-03-01T09:15:51;4.97;;;4.47;;
64799;SDS011;51233;51.982;4.594;2023-03-01T09:18:52;4.60;;;4.20;;
64799;SDS011;51233;51.982;4.594;2023-03-01T09:21:52;5.73;;;4.10;;
64799;SDS011;51233;51.982;4.594;2023-03-01T09:24:53;4.37;;;3.97;;
64799;SDS011;51233;51.982;4.594;2023-03-01T09:27:53;4.35;;;3.60;;
64799;SDS011;51233;51.982;4.594;2023-03-01T09:30:57;6.37;;;4.43;;
64799;SDS011;51233;51.982;4.594;2023-03-01T09:34:00;4.97;;;4.25;;
64799;SDS011;51233;51.982;4.594;2023-03-01T09:37:00;3.67;;;3.30;;
64799;SDS011;51233;51.982;4.594;2023-03-01T09:40:02;5.25;;;3.63;;
64799;SDS011;51233;51.982;4.594;2023-03-01T09:43:08;3.85;;;3.35;;
64799;SDS011;51233;51.982;4.594;2023-03-01T09:46:12;4.07;;;3.00;;
64799;SDS011;51233;51.982;4.594;2023-03-01T09:50:17;4.25;;;3.90;;
64799;SDS011;51233;51.982;4.594;2023-03-01T09:53:31;2.00;;;1.80;;
64799;SDS011;51233;51.982;4.594;2023-03-01T09:56:17;3.10;;;2.80;;
64799;SDS011;51233;51.982;4.594;2023-03-01T10:12:04;2.30;;;2.10;;
64799;SDS011;51233;51.982;4.594;2023-03-01T10:18:15;3.08;;;2.60;;
64799;SDS011;51233;51.982;4.594;2023-03-01T10:21:18;4.95;;;3.78;;
64799;SDS011;51233;51.982;4.594;2023-03-01T10:24:21;2.60;;;2.25;;
64799;SDS011;51233;51.982;4.594;2023-03-01T10:27:23;3.17;;;2.90;;
64799;SDS011;51233;51.982;4.594;2023-03-01T10:30:37;1.65;;;1.55;;
64799;SDS011;51233;51.982;4.594;2023-03-01T10:33:42;3.03;;;2.72;;
64799;SDS011;51233;51.982;4.594;2023-03-01T10:36:42;1.75;;;1.15;;
64799;SDS011;51233;51.982;4.594;2023-03-01T10:40:03;2.53;;;2.33;;
64799;SDS011;51233;51.982;4.594;2023-03-01T10:43:10;2.47;;;1.90;;
64799;SDS011;51233;51.982;4.594;2023-03-01T10:49:26;4.55;;;4.13;;
64799;SDS011;51233;51.982;4.594;2023-03-01T10:52:36;5.30;;;4.15;;
64799;SDS011;51233;51.982;4.594;2023-03-01T10:55:38;4.30;;;3.60;;
64799;SDS011;51233;51.982;4.594;2023-03-01T10:58:40;4.80;;;3.42;;
64799;SDS011;51233;51.982;4.594;2023-03-01T11:01:40;5.38;;;3.75;;
64799;SDS011;51233;51.982;4.594;2023-03-01T11:05:13;6.45;;;4.68;;
64799;SDS011;51233;51.982;4.594;2023-03-01T11:08:01;4.05;;;3.75;;
64799;SDS011;51233;51.982;4.594;2023-03-01T11:14:06;3.72;;;3.42;;
64799;SDS011;51233;51.982;4.594;2023-03-01T11:17:15;4.28;;;2.85;;
64799;SDS011;51233;51.982;4.594;2023-03-01T11:23:19;1.80;;;1.35;;
64799;SDS011;51233;51.982;4.594;2023-03-01T11:26:20;4.33;;;3.43;;
64799;SDS011;51233;51.982;4.594;2023-03-01T11:29:25;3.33;;;3.03;;
64799;SDS011;51233;51.982;4.594;2023-03-01T11:32:28;3.80;;;3.50;;
64799;SDS011;51233;51.982;4.594;2023-03-01T11:35:29;0.80;;;0.73;;
64799;SDS011;51233;51.982;4.594;2023-03-01T11:38:30;2.93;;;2.63;;
64799;SDS011;51233;51.982;4.594;2023-03-01T11:41:33;6.72;;;4.50;;
64799;SDS011;51233;51.982;4.594;2023-03-01T11:44:36;4.53;;;3.60;;
64799;SDS011;51233;51.982;4.594;2023-03-01T11:50:47;2.78;;;2.58;;
64799;SDS011;51233;51.982;4.594;2023-03-01T11:57:33;4.80;;;3.83;;
64799;SDS011;51233;51.982;4.594;2023-03-01T12:07:01;4.20;;;3.53;;
64799;SDS011;51233;51.982;4.594;2023-03-01T12:10:13;2.00;;;1.90;;
64799;SDS011;51233;51.982;4.594;2023-03-01T12:22:35;2.17;;;1.98;;
64799;SDS011;51233;51.982;4.594;2023-03-01T12:35:20;2.63;;;2.42;;
64799;SDS011;51233;51.982;4.594;2023-03-01T12:41:40;1.83;;;1.73;;
64799;SDS011;51233;51.982;4.594;2023-03-01T12:51:06;3.05;;;2.85;;
64799;SDS011;51233;51.982;4.594;2023-03-01T12:54:14;1.45;;;1.35;;
64799;SDS011;51233;51.982;4.594;2023-03-01T12:57:29;3.60;;;3.30;;
64799;SDS011;51233;51.982;4.594;2023-03-01T13:13:18;3.38;;;2.13;;
64799;SDS011;51233;51.982;4.594;2023-03-01T13:16:20;2.08;;;1.90;;
64799;SDS011;51233;51.982;4.594;2023-03-01T13:19:21;4.95;;;2.65;;
64799;SDS011;51233;51.982;4.594;2023-03-01T13:22:26;3.00;;;2.80;;
64799;SDS011;51233;51.982;4.594;2023-03-01T13:25:27;1.65;;;1.52;;
64799;SDS011;51233;51.982;4.594;2023-03-01T13:34:45;1.50;;;1.40;;
64799;SDS011;51233;51.982;4.594;2023-03-01T13:37:45;1.58;;;1.23;;
64799;SDS011;51233;51.982;4.594;2023-03-01T13:43:55;2.17;;;1.98;;
64799;SDS011;51233;51.982;4.594;2023-03-01T13:50:15;2.58;;;0.77;;
64799;SDS011;51233;51.982;4.594;2023-03-01T13:53:17;2.90;;;1.63;;
64799;SDS011;51233;51.982;4.594;2023-03-01T13:56:24;2.05;;;1.88;;
64799;SDS011;51233;51.982;4.594;2023-03-01T13:59:25;1.20;;;1.20;;
64799;SDS011;51233;51.982;4.594;2023-03-01T14:02:26;3.30;;;2.80;;
64799;SDS011;51233;51.982;4.594;2023-03-01T14:05:26;3.08;;;2.88;;
64799;SDS011;51233;51.982;4.594;2023-03-01T14:08:27;2.23;;;2.13;;
64799;SDS011;51233;51.982;4.594;2023-03-01T14:14:48;2.17;;;2.08;;
64799;SDS011;51233;51.982;4.594;2023-03-01T14:18:07;1.63;;;1.52;;
64799;SDS011;51233;51.982;4.594;2023-03-01T14:21:12;1.15;;;1.13;;
64799;SDS011;51233;51.982;4.594;2023-03-01T14:24:17;1.88;;;1.75;;
64799;SDS011;51233;51.982;4.594;2023-03-01T14:27:18;1.20;;;1.17;;
64799;SDS011;51233;51.982;4.594;2023-03-01T14:30:23;2.10;;;1.77;;
64799;SDS011;51233;51.982;4.594;2023-03-01T14:36:28;1.80;;;1.70;;
64799;SDS011;51233;51.982;4.594;2023-03-01T14:39:28;0.82;;;0.82;;
64799;SDS011;51233;51.982;4.594;2023-03-01T14:42:34;0.80;;;0.80;;
64799;SDS011;51233;51.982;4.594;2023-03-01T14:45:34;2.92;;;2.72;;
64799;SDS011;51233;51.982;4.594;2023-03-01T14:48:35;3.87;;;3.57;;
64799;SDS011;51233;51.982;4.594;2023-03-01T14:51:38;2.70;;;2.50;;
64799;SDS011;51233;51.982;4.594;2023-03-01T14:54:40;2.80;;;2.60;;
64799;SDS011;51233;51.982;4.594;2023-03-01T14:57:43;2.85;;;2.00;;
64799;SDS011;51233;51.982;4.594;2023-03-01T15:00:47;2.38;;;2.17;;
64799;SDS011;51233;51.982;4.594;2023-03-01T15:03:48;1.75;;;1.65;;
64799;SDS011;51233;51.982;4.594;2023-03-01T15:06:52;2.83;;;2.55;;
64799;SDS011;51233;51.982;4.594;2023-03-01T15:09:53;3.05;;;2.55;;
64799;SDS011;51233;51.982;4.594;2023-03-01T15:12:53;2.40;;;2.20;;
64799;SDS011;51233;51.982;4.594;2023-03-01T15:16:00;2.73;;;2.53;;
64799;SDS011;51233;51.982;4.594;2023-03-01T15:19:04;3.50;;;2.78;;
64799;SDS011;51233;51.982;4.594;2023-03-01T15:22:12;2.10;;;1.85;;
64799;SDS011;51233;51.982;4.594;2023-03-01T15:25:16;6.07;;;2.45;;
64799;SDS011;51233;51.982;4.594;2023-03-01T15:28:19;2.55;;;2.35;;
64799;SDS011;51233;51.982;4.594;2023-03-01T15:31:22;2.95;;;2.63;;
64799;SDS011;51233;51.982;4.594;2023-03-01T15:40:50;1.80;;;1.70;;
64799;SDS011;51233;51.982;4.594;2023-03-01T15:43:50;2.03;;;1.83;;
64799;SDS011;51233;51.982;4.594;2023-03-01T15:46:54;2.00;;;1.90;;
64799;SDS011;51233;51.982;4.594;2023-03-01T15:49:54;2.70;;;2.50;;
64799;SDS011;51233;51.982;4.594;2023-03-01T15:52:55;3.30;;;2.03;;
64799;SDS011;51233;51.982;4.594;2023-03-01T15:55:55;2.50;;;2.30;;
64799;SDS011;51233;51.982;4.594;2023-03-01T15:58:59;4.05;;;2.75;;
64799;SDS011;51233;51.982;4.594;2023-03-01T16:02:00;4.10;;;3.00;;
64799;SDS011;51233;51.982;4.594;2023-03-01T16:05:00;2.20;;;2.00;;
64799;SDS011;51233;51.982;4.594;2023-03-01T16:08:00;2.22;;;2.03;;
64799;SDS011;51233;51.982;4.594;2023-03-01T16:11:02;2.33;;;2.13;;
64799;SDS011;51233;51.982;4.594;2023-03-01T16:14:04;1.70;;;1.60;;
64799;SDS011;51233;51.982;4.594;2023-03-01T16:17:04;1.90;;;1.70;;
64799;SDS011;51233;51.982;4.594;2023-03-01T16:20:05;2.30;;;2.10;;
64799;SDS011;51233;51.982;4.594;2023-03-01T16:23:06;1.57;;;1.47;;
64799;SDS011;51233;51.982;4.594;2023-03-01T16:26:06;2.20;;;1.83;;
64799;SDS011;51233;51.982;4.594;2023-03-01T16:29:06;1.73;;;1.50;;
64799;SDS011;51233;51.982;4.594;2023-03-01T16:32:06;0.90;;;0.90;;
64799;SDS011;51233;51.982;4.594;2023-03-01T16:35:07;2.50;;;2.30;;
64799;SDS011;51233;51.982;4.594;2023-03-01T16:38:09;2.38;;;2.17;;
64799;SDS011;51233;51.982;4.594;2023-03-01T16:41:13;2.63;;;2.40;;
64799;SDS011;51233;51.982;4.594;2023-03-01T16:44:16;1.50;;;1.40;;
64799;SDS011;51233;51.982;4.594;2023-03-01T16:47:16;2.50;;;2.30;;
64799;SDS011;51233;51.982;4.594;2023-03-01T16:50:16;2.07;;;1.93;;
64799;SDS011;51233;51.982;4.594;2023-03-01T16:53:17;3.13;;;2.83;;
64799;SDS011;51233;51.982;4.594;2023-03-01T16:56:17;3.42;;;3.10;;
64799;SDS011;51233;51.982;4.594;2023-03-01T16:59:18;2.85;;;2.58;;
64799;SDS011;51233;51.982;4.594;2023-03-01T17:02:19;2.83;;;2.58;;
64799;SDS011;51233;51.982;4.594;2023-03-01T17:05:19;2.57;;;2.10;;
64799;SDS011;51233;51.982;4.594;2023-03-01T17:08:22;3.20;;;2.42;;
64799;SDS011;51233;51.982;4.594;2023-03-01T17:11:22;3.58;;;3.28;;
64799;SDS011;51233;51.982;4.594;2023-03-01T17:14:22;2.23;;;2.03;;
64799;SDS011;51233;51.982;4.594;2023-03-01T17:17:23;4.97;;;4.37;;
64799;SDS011;51233;51.982;4.594;2023-03-01T17:20:23;4.00;;;3.70;;
64799;SDS011;51233;51.982;4.594;2023-03-01T17:23:23;4.67;;;3.97;;
64799;SDS011;51233;51.982;4.594;2023-03-01T17:26:23;4.30;;;3.90;;
64799;SDS011;51233;51.982;4.594;2023-03-01T17:29:24;4.10;;;3.70;;
64799;SDS011;51233;51.982;4.594;2023-03-01T17:32:24;4.80;;;4.30;;
64799;SDS011;51233;51.982;4.594;2023-03-01T17:35:24;4.60;;;4.20;;
64799;SDS011;51233;51.982;4.594;2023-03-01T17:38:24;5.73;;;4.77;;
64799;SDS011;51233;51.982;4.594;2023-03-01T17:41:25;7.23;;;4.60;;
64799;SDS011;51233;51.982;4.594;2023-03-01T17:44:25;8.63;;;4.63;;
64799;SDS011;51233;51.982;4.594;2023-03-01T17:47:25;8.33;;;5.00;;
64799;SDS011;51233;51.982;4.594;2023-03-01T17:50:25;5.97;;;4.63;;
64799;SDS011;51233;51.982;4.594;2023-03-01T17:53:26;9.90;;;4.00;;
64799;SDS011;51233;51.982;4.594;2023-03-01T17:56:26;2.80;;;2.60;;
64799;SDS011;51233;51.982;4.594;2023-03-01T17:59:27;4.60;;;3.40;;
64799;SDS011;51233;51.982;4.594;2023-03-01T18:02:32;4.45;;;3.42;;
64799;SDS011;51233;51.982;4.594;2023-03-01T18:05:33;4.65;;;4.07;;
64799;SDS011;51233;51.982;4.594;2023-03-01T18:08:33;4.97;;;4.45;;
64799;SDS011;51233;51.982;4.594;2023-03-01T18:11:34;5.00;;;4.60;;
64799;SDS011;51233;51.982;4.594;2023-03-01T18:14:34;7.67;;;5.33;;
64799;SDS011;51233;51.982;4.594;2023-03-01T18:17:35;6.10;;;5.50;;
64799;SDS011;51233;51.982;4.594;2023-03-01T18:20:38;5.90;;;5.30;;
64799;SDS011;51233;51.982;4.594;2023-03-01T18:23:38;5.93;;;5.20;;
64799;SDS011;51233;51.982;4.594;2023-03-01T18:26:38;6.17;;;5.57;;
64799;SDS011;51233;51.982;4.594;2023-03-01T18:29:39;6.28;;;5.38;;
64799;SDS011;51233;51.982;4.594;2023-03-01T18:32:42;5.07;;;4.63;;
64799;SDS011;51233;51.982;4.594;2023-03-01T18:35:43;5.25;;;4.63;;
64799;SDS011;51233;51.982;4.594;2023-03-01T18:38:48;5.45;;;4.90;;
64799;SDS011;51233;51.982;4.594;2023-03-01T18:41:49;6.97;;;5.13;;
64799;SDS011;51233;51.982;4.594;2023-03-01T18:44:52;6.65;;;5.03;;
64799;SDS011;51233;51.982;4.594;2023-03-01T18:47:52;5.53;;;4.57;;
64799;SDS011;51233;51.982;4.594;2023-03-01T18:50:53;8.57;;;6.20;;
64799;SDS011;51233;51.982;4.594;2023-03-01T18:53:53;7.47;;;6.00;;
64799;SDS011;51233;51.982;4.594;2023-03-01T18:56:54;7.73;;;5.40;;
64799;SDS011;51233;51.982;4.594;2023-03-01T18:59:54;5.07;;;3.77;;
64799;SDS011;51233;51.982;4.594;2023-03-01T19:03:03;8.47;;;5.13;;
64799;SDS011;51233;51.982;4.594;2023-03-01T19:06:04;6.65;;;5.60;;
64799;SDS011;51233;51.982;4.594;2023-03-01T19:09:04;8.00;;;5.77;;
64799;SDS011;51233;51.982;4.594;2023-03-01T19:12:05;6.27;;;5.57;;
64799;SDS011;51233;51.982;4.594;2023-03-01T19:15:06;9.60;;;5.57;;
64799;SDS011;51233;51.982;4.594;2023-03-01T19:18:06;6.57;;;5.87;;
64799;SDS011;51233;51.982;4.594;2023-03-01T19:21:09;6.45;;;5.60;;
64799;SDS011;51233;51.982;4.594;2023-03-01T19:24:10;6.13;;;5.53;;
64799;SDS011;51233;51.982;4.594;2023-03-01T19:27:11;6.60;;;5.97;;
64799;SDS011;51233;51.982;4.594;2023-03-01T19:30:11;7.63;;;4.90;;
64799;SDS011;51233;51.982;4.594;2023-03-01T19:33:12;4.03;;;3.60;;
64799;SDS011;51233;51.982;4.594;2023-03-01T19:36:12;6.50;;;5.53;;
64799;SDS011;51233;51.982;4.594;2023-03-01T19:39:12;6.13;;;5.33;;
64799;SDS011;51233;51.982;4.594;2023-03-01T19:42:13;6.50;;;5.90;;
64799;SDS011;51233;51.982;4.594;2023-03-01T19:45:13;3.93;;;3.43;;
64799;SDS011;51233;51.982;4.594;2023-03-01T19:48:13;3.80;;;3.50;;
64799;SDS011;51233;51.982;4.594;2023-03-01T19:51:13;4.18;;;3.67;;
64799;SDS011;51233;51.982;4.594;2023-03-01T19:54:14;5.33;;;4.83;;
64799;SDS011;51233;51.982;4.594;2023-03-01T19:57:18;8.02;;;5.63;;
64799;SDS011;51233;51.982;4.594;2023-03-01T20:00:19;7.13;;;5.78;;
64799;SDS011;51233;51.982;4.594;2023-03-01T20:03:19;8.20;;;6.20;;
64799;SDS011;51233;51.982;4.594;2023-03-01T20:06:19;6.75;;;5.50;;
64799;SDS011;51233;51.982;4.594;2023-03-01T20:09:20;8.02;;;6.35;;
64799;SDS011;51233;51.982;4.594;2023-03-01T20:12:20;6.73;;;6.00;;
64799;SDS011;51233;51.982;4.594;2023-03-01T20:15:21;6.47;;;5.73;;
64799;SDS011;51233;51.982;4.594;2023-03-01T20:18:21;6.73;;;5.60;;